Time;durP1;ratioP1;P1;durP2;ratioP2;P2;SDS_P1;SDS_P2;PMS_P1;PMS_P2;Temp;Humidity;BMP_temperature;BMP_pressure;BME280_temperature;BME280_humidity;BME280_pressure;Samples;Min_cycle;Max_cycle;Signal;HPM_P1;HPM_P2
2022/09/05 00:00:08;;;;;;;;;;;25.70;68.80;;;;;;4987132;28;19937;-61
2022/09/05 00:02:38;;;;;;;;;;;25.90;68.90;;;;;;4982263;28;20415;-61
2022/09/05 00:05:08;;;;;;;;;;;25.70;68.80;;;;;;4991708;28;20987;-61
2022/09/05 00:07:37;;;;;;;;;;;25.80;70.20;;;;;;5012708;28;20303;-62
2022/09/05 00:10:09;;;;;;;;;;;25.80;70.20;;;;;;5018865;28;19932;-61
2022/09/05 00:12:34;;;;;;;;;;;25.90;68.80;;;;;;5001772;28;20399;-68
2022/09/05 00:15:18;;;;;;;;;;;23.50;68.60;;;;;;5017170;28;19933;-61
2022/09/05 00:17:49;;;;;;;;;;;25.60;68.60;;;;;;5042719;28;19929;-62
2022/09/05 00:20:15;;;;;;;;;;;25.70;70.10;;;;;;5058029;28;20390;-61
2022/09/05 00:22:59;;;;;;;;;;;25.50;69.80;;;;;;5037312;28;19925;-61
2022/09/05 00:25:27;;;;;;;;;;;25.40;68.50;;;;;;5046393;28;20013;-61
2022/09/05 00:27:57;;;;;;;;;;;25.70;68.70;;;;;;5050159;28;19971;-61
2022/09/05 00:30:23;;;;;;;;;;;25.40;68.50;;;;;;5035517;28;19925;-61
2022/09/05 00:32:52;;;;;;;;;;;25.70;69.80;;;;;;5050201;28;19925;-60
2022/09/05 00:35:24;;;;;;;;;;;25.60;68.60;;;;;;5048889;28;19959;-61
2022/09/05 00:37:49;;;;;;;;;;;25.70;68.70;;;;;;5050848;28;19925;-61
2022/09/05 00:40:28;;;;;;;;;;;25.60;69.90;;;;;;5050197;28;19925;-60
2022/09/05 00:42:55;;;;;;;;;;;25.70;68.70;;;;;;5036595;28;19980;-60
2022/09/05 00:45:59;;;;;;;;;;;25.60;70.10;;;;;;5046677;28;19925;-61
2022/09/05 00:48:25;;;;;;;;;;;25.70;68.70;;;;;;5031458;28;19932;-61
2022/09/05 00:50:50;;;;;;;;;;;25.70;69.90;;;;;;5031874;28;19976;-63
2022/09/05 00:53:17;;;;;;;;;;;25.60;69.80;;;;;;5031811;28;20379;-61
2022/09/05 00:55:46;;;;;;;;;;;25.60;70.10;;;;;;5012977;28;19925;-61
2022/09/05 00:58:11;;;;;;;;;;;25.40;68.60;;;;;;5031134;28;20683;-61
2022/09/05 01:00:52;;;;;;;;;;;25.50;69.80;;;;;;5031832;28;19975;-61
2022/09/05 01:03:30;;;;;;;;;;;25.80;68.80;;;;;;5014530;28;20083;-61
2022/09/05 01:06:14;;;;;;;;;;;25.70;68.70;;;;;;5029836;28;20473;-62
2022/09/05 01:08:46;;;;;;;;;;;25.50;68.60;;;;;;5032534;28;20264;-60
2022/09/05 01:11:16;;;;;;;;;;;25.30;70.00;;;;;;5014351;28;19927;-61
2022/09/05 01:13:46;;;;;;;;;;;26.10;70.40;;;;;;5032405;28;19929;-60
2022/09/05 01:16:22;;;;;;;;;;;25.40;68.60;;;;;;5014690;28;19932;-61
2022/09/05 01:19:00;;;;;;;;;;;25.60;70.10;;;;;;5031012;28;20379;-61
2022/09/05 01:21:31;;;;;;;;;;;25.50;68.70;;;;;;5032718;28;20103;-61
2022/09/05 01:23:57;;;;;;;;;;;25.50;68.70;;;;;;5033431;28;19931;-61
2022/09/05 01:26:23;;;;;;;;;;;25.50;69.70;;;;;;5038944;28;20297;-61
2022/09/05 01:28:48;;;;;;;;;;;25.60;70.00;;;;;;5033011;28;20341;-69
2022/09/05 01:31:14;;;;;;;;;;;25.30;69.30;;;;;;5038214;28;19925;-69
2022/09/05 01:33:58;;;;;;;;;;;25.60;70.00;;;;;;5047313;28;20347;-61
2022/09/05 01:36:44;;;;;;;;;;;25.60;68.90;;;;;;5038741;28;20387;-62
2022/09/05 01:39:29;;;;;;;;;;;25.40;68.70;;;;;;5055044;28;20387;-61
2022/09/05 01:41:57;;;;;;;;;;;25.70;68.90;;;;;;5022696;28;20015;-61
2022/09/05 01:44:35;;;;;;;;;;;25.60;70.20;;;;;;5037755;28;19932;-61
2022/09/05 01:47:06;;;;;;;;;;;25.50;68.80;;;;;;5055576;28;19929;-61
2022/09/05 01:49:36;;;;;;;;;;;25.50;68.80;;;;;;5065108;28;20371;-61
2022/09/05 01:52:21;;;;;;;;;;;25.30;70.10;;;;;;5056233;28;19936;-61
2022/09/05 01:55:06;;;;;;;;;;;25.60;68.90;;;;;;5058503;28;19925;-62
2022/09/05 01:57:31;;;;;;;;;;;25.80;69.00;;;;;;5043894;28;19931;-61
2022/09/05 02:00:03;;;;;;;;;;;25.30;69.90;;;;;;5045451;28;20004;-61
2022/09/05 02:02:47;;;;;;;;;;;25.40;70.20;;;;;;5052491;28;20260;-61
2022/09/05 02:05:14;;;;;;;;;;;25.50;68.80;;;;;;5040093;28;19925;-61
2022/09/05 02:07:59;;;;;;;;;;;25.50;70.20;;;;;;5035206;28;19932;-61
2022/09/05 02:10:39;;;;;;;;;;;25.30;69.30;;;;;;5021798;28;19925;-62
2022/09/05 02:13:17;;;;;;;;;;;25.60;68.90;;;;;;5020273;28;20302;-61
2022/09/05 02:15:52;;;;;;;;;;;25.50;68.80;;;;;;5015134;28;19929;-61
2022/09/05 02:18:21;;;;;;;;;;;25.20;68.60;;;;;;5014677;28;19931;-61
2022/09/05 02:20:49;;;;;;;;;;;25.40;70.20;;;;;;5025449;28;19925;-61
2022/09/05 02:23:18;;;;;;;;;;;25.30;70.10;;;;;;5024962;28;19925;-61
2022/09/05 02:25:46;;;;;;;;;;;25.40;68.70;;;;;;5016273;28;19933;-69
2022/09/05 02:28:19;;;;;;;;;;;25.50;68.80;;;;;;5034206;28;20405;-69
2022/09/05 02:30:49;;;;;;;;;;;25.40;68.80;;;;;;5029316;28;19929;-60
2022/09/05 02:33:50;;;;;;;;;;;25.10;68.60;;;;;;5015661;28;19925;-60
2022/09/05 02:36:35;;;;;;;;;;;25.40;68.90;;;;;;4970172;28;19926;-61
2022/09/05 02:39:19;;;;;;;;;;;25.40;68.80;;;;;;4971250;28;19930;-62
2022/09/05 02:41:56;;;;;;;;;;;25.50;68.90;;;;;;4970168;28;19962;-67
2022/09/05 02:44:27;;;;;;;;;;;25.60;68.90;;;;;;4952240;28;20496;-61
2022/09/05 02:47:04;;;;;;;;;;;25.50;68.80;;;;;;4963550;28;19922;-61
2022/09/05 02:49:42;;;;;;;;;;;25.50;68.90;;;;;;4952544;28;19930;-61
2022/09/05 02:52:08;;;;;;;;;;;25.30;70.20;;;;;;4970986;28;20005;-61
2022/09/05 02:54:38;;;;;;;;;;;25.50;70.30;;;;;;4968077;28;19926;-60
2022/09/05 02:57:06;;;;;;;;;;;25.40;68.90;;;;;;4969608;28;20278;-61
2022/09/05 02:59:41;;;;;;;;;;;25.20;68.70;;;;;;4971019;28;19930;-60
2022/09/05 03:02:12;;;;;;;;;;;25.50;69.00;;;;;;4953242;28;20012;-63
2022/09/05 03:04:42;;;;;;;;;;;25.30;68.80;;;;;;4971643;28;19926;-61
2022/09/05 03:07:14;;;;;;;;;;;25.10;68.70;;;;;;4953298;28;19927;-62
2022/09/05 03:10:19;;;;;;;;;;;25.20;68.80;;;;;;4985177;28;19925;-61
2022/09/05 03:12:47;;;;;;;;;;;25.40;68.90;;;;;;5008683;28;20433;-66
2022/09/05 03:15:22;;;;;;;;;;;25.50;69.20;;;;;;5006140;28;19925;-61
2022/09/05 03:18:06;;;;;;;;;;;25.30;68.80;;;;;;5021572;28;19929;-60
2022/09/05 03:20:37;;;;;;;;;;;25.40;68.90;;;;;;4985519;28;19987;-61
2022/09/05 03:23:14;;;;;;;;;;;25.10;70.20;;;;;;5023732;28;19925;-68
2022/09/05 03:25:40;;;;;;;;;;;25.40;69.00;;;;;;4997965;28;19925;-60
2022/09/05 03:28:18;;;;;;;;;;;25.30;69.90;;;;;;5004576;28;20027;-62
2022/09/05 03:30:44;;;;;;;;;;;25.10;68.70;;;;;;5022104;28;19932;-69
2022/09/05 03:33:20;;;;;;;;;;;25.10;69.80;;;;;;5008336;28;20404;-61
2022/09/05 03:35:55;;;;;;;;;;;25.10;68.70;;;;;;5025337;28;19928;-61
2022/09/05 03:38:21;;;;;;;;;;;25.10;68.70;;;;;;5008820;28;20014;-60
2022/09/05 03:41:05;;;;;;;;;;;25.20;70.10;;;;;;5008986;28;19984;-61
2022/09/05 03:43:31;;;;;;;;;;;25.10;68.80;;;;;;5021015;28;19926;-60
2022/09/05 03:46:07;;;;;;;;;;;25.30;70.10;;;;;;5024915;28;20004;-61
2022/09/05 03:48:36;;;;;;;;;;;25.30;69.00;;;;;;5014545;28;19968;-60
2022/09/05 03:51:09;;;;;;;;;;;25.20;70.40;;;;;;5046266;28;19925;-60
2022/09/05 03:53:41;;;;;;;;;;;25.40;69.00;;;;;;5043671;28;19929;-61
2022/09/05 03:56:26;;;;;;;;;;;25.10;68.80;;;;;;5016407;28;19960;-60
2022/09/05 03:59:06;;;;;;;;;;;25.00;68.80;;;;;;5028473;28;20290;-60
2022/09/05 04:01:37;;;;;;;;;;;25.10;68.80;;;;;;5033697;28;19944;-61
2022/09/05 04:04:07;;;;;;;;;;;25.10;68.70;;;;;;5028667;28;19925;-61
2022/09/05 04:06:33;;;;;;;;;;;25.20;68.90;;;;;;5033066;28;19933;-61
2022/09/05 04:09:04;;;;;;;;;;;25.10;70.20;;;;;;5024868;28;19933;-61
2022/09/05 04:11:40;;;;;;;;;;;25.10;68.80;;;;;;5037281;28;20436;-61
2022/09/05 04:14:13;;;;;;;;;;;25.30;68.90;;;;;;5049867;28;20456;-61
2022/09/05 04:16:49;;;;;;;;;;;24.80;68.70;;;;;;5061936;28;19936;-61
2022/09/05 04:19:24;;;;;;;;;;;25.00;68.80;;;;;;5054513;28;19924;-60
2022/09/05 04:21:57;;;;;;;;;;;25.10;68.90;;;;;;5045588;28;20015;-69
2022/09/05 04:24:42;;;;;;;;;;;25.20;70.40;;;;;;5049681;28;19951;-69
2022/09/05 04:27:18;;;;;;;;;;;25.10;68.80;;;;;;5031043;28;19925;-69
2022/09/05 04:29:43;;;;;;;;;;;25.20;69.00;;;;;;5038883;28;19933;-69
2022/09/05 04:32:22;;;;;;;;;;;25.10;70.00;;;;;;5038639;28;20389;-61
2022/09/05 04:35:11;;;;;;;;;;;24.90;68.90;;;;;;5038245;28;19925;-60
2022/09/05 04:37:37;;;;;;;;;;;25.10;69.00;;;;;;4990003;28;19925;-60
2022/09/05 04:40:21;;;;;;;;;;;25.40;70.40;;;;;;4990908;28;19937;-61
2022/09/05 04:42:47;;;;;;;;;;;25.30;69.70;;;;;;4990067;28;19934;-61
2022/09/05 04:45:12;;;;;;;;;;;25.40;70.30;;;;;;4978069;28;19933;-61
2022/09/05 04:47:38;;;;;;;;;;;25.00;70.10;;;;;;4976310;28;20419;-66
2022/09/05 04:50:04;;;;;;;;;;;25.10;70.50;;;;;;4988584;28;19933;-61
2022/09/05 04:52:33;;;;;;;;;;;25.10;70.00;;;;;;4992380;28;20372;-62
2022/09/05 04:55:00;;;;;;;;;;;25.20;69.00;;;;;;4991199;28;19933;-69
2022/09/05 04:57:30;;;;;;;;;;;25.10;70.40;;;;;;4976434;28;19992;-60
2022/09/05 05:00:06;;;;;;;;;;;24.80;68.80;;;;;;4974541;28;20008;-61
2022/09/05 05:02:40;;;;;;;;;;;25.40;69.20;;;;;;4987870;28;19930;-63
2022/09/05 05:05:19;;;;;;;;;;;25.10;68.90;;;;;;4991451;28;20353;-61
2022/09/05 05:07:53;;;;;;;;;;;25.10;69.20;;;;;;4975773;28;19977;-61
2022/09/05 05:10:34;;;;;;;;;;;24.80;68.80;;;;;;4992170;28;19925;-61
2022/09/05 05:13:03;;;;;;;;;;;25.10;68.90;;;;;;4982132;28;19926;-61
2022/09/05 05:15:29;;;;;;;;;;;25.00;68.90;;;;;;5036616;28;19925;-61
2022/09/05 05:17:54;;;;;;;;;;;25.30;70.20;;;;;;5045170;28;19932;-60
2022/09/05 05:20:20;;;;;;;;;;;25.10;70.10;;;;;;5042874;28;20386;-60
2022/09/05 05:22:48;;;;;;;;;;;25.20;70.00;;;;;;5041477;28;19932;-60
2022/09/05 05:25:14;;;;;;;;;;;25.00;70.30;;;;;;5059273;28;20268;-61
2022/09/05 05:27:44;;;;;;;;;;;24.90;69.90;;;;;;5041556;28;19947;-69
2022/09/05 05:30:10;;;;;;;;;;;24.90;68.80;;;;;;5042671;28;19925;-61
2022/09/05 05:32:40;;;;;;;;;;;25.10;69.70;;;;;;5041267;28;19967;-62
2022/09/05 05:35:09;;;;;;;;;;;25.00;70.20;;;;;;5058185;28;19926;-61
2022/09/05 05:37:41;;;;;;;;;;;25.00;68.80;;;;;;5038140;28;19925;-61
2022/09/05 05:40:09;;;;;;;;;;;25.10;68.90;;;;;;5045615;28;19925;-61
2022/09/05 05:42:35;;;;;;;;;;;24.90;69.70;;;;;;5044801;28;19921;-61
2022/09/05 05:45:01;;;;;;;;;;;25.00;70.20;;;;;;5045126;28;19940;-61
2022/09/05 05:47:36;;;;;;;;;;;25.10;69.90;;;;;;5039970;28;19925;-61
2022/09/05 05:50:09;;;;;;;;;;;24.80;68.60;;;;;;5035897;28;20307;-61
2022/09/05 05:52:53;;;;;;;;;;;25.00;68.60;;;;;;5060115;28;19931;-63
2022/09/05 05:55:36;;;;;;;;;;;24.80;68.50;;;;;;5035764;28;20282;-61
2022/09/05 05:58:21;;;;;;;;;;;25.10;68.60;;;;;;5035116;28;19936;-61
2022/09/05 06:01:05;;;;;;;;;;;25.10;68.60;;;;;;5051285;28;19925;-62
2022/09/05 06:03:50;;;;;;;;;;;25.10;68.60;;;;;;5041428;28;19931;-61
2022/09/05 06:06:26;;;;;;;;;;;25.50;68.80;;;;;;5041906;28;19925;-61
2022/09/05 06:09:07;;;;;;;;;;;25.30;68.60;;;;;;5026215;28;19929;-62
2022/09/05 06:11:33;;;;;;;;;;;25.00;68.40;;;;;;5039880;28;19929;-60
2022/09/05 06:14:17;;;;;;;;;;;25.20;69.60;;;;;;5048672;28;19932;-61
2022/09/05 06:16:53;;;;;;;;;;;25.50;68.50;;;;;;5041473;28;19971;-66
2022/09/05 06:19:28;;;;;;;;;;;25.70;68.70;;;;;;5056662;28;19925;-62
2022/09/05 06:22:05;;;;;;;;;;;25.40;68.20;;;;;;5041166;28;19948;-66
2022/09/05 06:24:53;;;;;;;;;;;25.40;68.00;;;;;;5050177;28;20495;-60
2022/09/05 06:27:18;;;;;;;;;;;25.70;67.90;;;;;;5044292;28;19948;-66
2022/09/05 06:29:56;;;;;;;;;;;25.90;68.50;;;;;;5051623;28;19924;-66
2022/09/05 06:32:34;;;;;;;;;;;25.80;66.90;;;;;;5044239;28;19943;-61
2022/09/05 06:35:09;;;;;;;;;;;25.80;66.80;;;;;;5024880;28;20864;-62
2022/09/05 06:37:38;;;;;;;;;;;25.70;66.70;;;;;;5058392;28;20325;-61
2022/09/05 06:40:22;;;;;;;;;;;25.70;68.10;;;;;;5038352;28;19932;-60
2022/09/05 06:42:51;;;;;;;;;;;26.20;67.00;;;;;;5026868;28;19925;-60
2022/09/05 06:45:21;;;;;;;;;;;25.80;66.70;;;;;;5038225;28;20290;-70
2022/09/05 06:47:48;;;;;;;;;;;25.60;68.00;;;;;;5043032;28;19921;-68
2022/09/05 06:50:15;;;;;;;;;;;25.70;67.90;;;;;;5055458;28;19932;-67
2022/09/05 06:52:41;;;;;;;;;;;25.80;68.20;;;;;;5056662;28;19929;-72
2022/09/05 06:55:06;;;;;;;;;;;25.70;68.10;;;;;;5054543;28;20393;-67
2022/09/05 06:57:58;;;;;;;;;;;25.80;68.50;;;;;;5049803;28;19925;-65
2022/09/05 07:00:43;;;;;;;;;;;25.70;67.10;;;;;;5042406;28;19924;-62
2022/09/05 07:03:17;;;;;;;;;;;25.80;67.00;;;;;;5034424;28;19936;-65
2022/09/05 07:05:49;;;;;;;;;;;25.80;68.20;;;;;;5032293;28;19925;-61
2022/09/05 07:08:29;;;;;;;;;;;25.80;68.00;;;;;;5034023;28;19925;-61
2022/09/05 07:11:18;;;;;;;;;;;25.80;66.50;;;;;;5039387;28;19932;-65
2022/09/05 07:13:56;;;;;;;;;;;25.70;66.30;;;;;;4992334;28;19932;-61
2022/09/05 07:16:33;;;;;;;;;;;26.00;66.30;;;;;;4993522;28;19934;-65
2022/09/05 07:19:25;;;;;;;;;;;26.20;66.30;;;;;;4992211;28;20316;-60
2022/09/05 07:21:51;;;;;;;;;;;26.20;66.30;;;;;;4963076;28;20013;-61
2022/09/05 07:24:17;;;;;;;;;;;26.30;67.60;;;;;;4996124;28;20029;-61
2022/09/05 07:26:44;;;;;;;;;;;26.10;67.50;;;;;;4993271;28;19938;-61
2022/09/05 07:29:10;;;;;;;;;;;26.20;67.40;;;;;;4986652;28;19933;-60
2022/09/05 07:31:36;;;;;;;;;;;26.50;67.40;;;;;;4979543;28;19926;-65
2022/09/05 07:34:07;;;;;;;;;;;26.40;67.40;;;;;;4978354;28;20356;-60
2022/09/05 07:36:36;;;;;;;;;;;26.60;66.00;;;;;;4995764;28;19933;-61
2022/09/05 07:39:01;;;;;;;;;;;26.40;67.10;;;;;;4979793;28;19929;-62
2022/09/05 07:41:28;;;;;;;;;;;26.60;67.00;;;;;;4993977;28;20025;-66
2022/09/05 07:43:57;;;;;;;;;;;26.60;67.40;;;;;;4989149;28;19926;-69
2022/09/05 07:46:36;;;;;;;;;;;26.70;65.80;;;;;;4990463;28;19926;-67
2022/09/05 07:49:13;;;;;;;;;;;26.70;65.90;;;;;;4985946;28;20391;-67
2022/09/05 07:52:05;;;;;;;;;;;26.80;67.40;;;;;;5026887;28;19929;-66
2022/09/05 07:54:34;;;;;;;;;;;26.80;65.80;;;;;;5051474;28;19983;-70
2022/09/05 07:57:05;;;;;;;;;;;27.00;65.70;;;;;;5051288;28;20281;-67
2022/09/05 07:59:31;;;;;;;;;;;27.20;67.20;;;;;;5052928;28;19971;-67
2022/09/05 08:01:57;;;;;;;;;;;26.90;67.00;;;;;;5051963;28;19929;-66
2022/09/05 08:04:26;;;;;;;;;;;27.10;67.00;;;;;;5052852;28;19928;-61
2022/09/05 08:06:53;;;;;;;;;;;27.10;65.70;;;;;;5054055;28;19980;-61
2022/09/05 08:09:23;;;;;;;;;;;27.00;67.00;;;;;;5017702;28;19929;-61
2022/09/05 08:11:50;;;;;;;;;;;27.40;65.80;;;;;;5030949;28;19932;-67
2022/09/05 08:14:20;;;;;;;;;;;27.30;66.90;;;;;;5034831;28;19925;-64
2022/09/05 08:16:46;;;;;;;;;;;27.50;67.20;;;;;;5009220;28;19965;-67
2022/09/05 08:19:30;;;;;;;;;;;27.80;66.90;;;;;;5025029;28;19987;-64
2022/09/05 08:21:56;;;;;;;;;;;27.60;65.60;;;;;;5031326;28;19925;-64
2022/09/05 08:24:36;;;;;;;;;;;27.40;66.70;;;;;;5033561;28;20252;-62
2022/09/05 08:27:02;;;;;;;;;;;27.60;65.30;;;;;;5029820;28;19929;-72
2022/09/05 08:29:37;;;;;;;;;;;27.70;66.60;;;;;;5029814;28;20402;-76
2022/09/05 08:32:10;;;;;;;;;;;27.60;65.20;;;;;;5045989;28;19926;-64
2022/09/05 08:34:47;;;;;;;;;;;27.70;65.30;;;;;;5034520;28;20566;-66
2022/09/05 08:37:22;;;;;;;;;;;27.50;65.10;;;;;;5024497;28;20291;-60
2022/09/05 08:39:51;;;;;;;;;;;27.60;66.50;;;;;;5032665;28;19925;-61
2022/09/05 08:42:32;;;;;;;;;;;27.90;65.30;;;;;;5035226;28;19932;-61
2022/09/05 08:45:01;;;;;;;;;;;28.20;65.60;;;;;;5034980;28;20302;-70
2022/09/05 08:47:39;;;;;;;;;;;27.70;65.20;;;;;;5029492;28;20004;-73
2022/09/05 08:50:24;;;;;;;;;;;27.90;65.30;;;;;;5022888;28;19925;-61
2022/09/05 08:52:51;;;;;;;;;;;27.70;65.70;;;;;;5027638;28;19925;-66
2022/09/05 08:55:30;;;;;;;;;;;27.90;66.60;;;;;;5017263;28;19932;-64
2022/09/05 08:58:05;;;;;;;;;;;27.90;67.10;;;;;;5042779;28;20012;-73
2022/09/05 09:00:34;;;;;;;;;;;28.00;65.60;;;;;;5020182;28;19936;-69
2022/09/05 09:03:03;;;;;;;;;;;28.10;67.10;;;;;;5019756;28;19925;-69
2022/09/05 09:05:47;;;;;;;;;;;27.90;65.50;;;;;;5027368;28;19925;-61
2022/09/05 09:08:19;;;;;;;;;;;27.80;65.40;;;;;;5028759;28;19932;-60
2022/09/05 09:10:45;;;;;;;;;;;27.90;66.00;;;;;;5038167;28;19925;-61
2022/09/05 09:13:10;;;;;;;;;;;27.80;66.20;;;;;;5051847;28;20445;-61
2022/09/05 09:15:40;;;;;;;;;;;28.10;66.90;;;;;;5039818;28;19972;-61
2022/09/05 09:18:12;;;;;;;;;;;28.00;65.60;;;;;;5061607;28;19925;-61
2022/09/05 09:20:43;;;;;;;;;;;27.90;65.60;;;;;;5047049;28;19925;-61
2022/09/05 09:23:12;;;;;;;;;;;28.10;67.10;;;;;;5062010;28;19924;-61
2022/09/05 09:25:41;;;;;;;;;;;28.10;67.10;;;;;;5037811;28;20382;-61
2022/09/05 09:28:10;;;;;;;;;;;28.20;67.80;;;;;;5061332;28;19964;-61
2022/09/05 09:30:35;;;;;;;;;;;28.30;65.90;;;;;;5038473;28;20004;-61
2022/09/05 09:33:02;;;;;;;;;;;28.20;66.80;;;;;;5063182;28;19991;-61
2022/09/05 09:35:37;;;;;;;;;;;28.10;66.80;;;;;;5049914;28;19964;-61
2022/09/05 09:38:12;;;;;;;;;;;28.40;65.90;;;;;;5049515;28;20330;-60
2022/09/05 09:40:38;;;;;;;;;;;27.80;65.50;;;;;;5066659;28;19929;-64
2022/09/05 09:43:07;;;;;;;;;;;28.30;67.20;;;;;;5041203;28;20087;-61
2022/09/05 09:45:45;;;;;;;;;;;28.20;67.10;;;;;;5046718;28;19932;-69
2022/09/05 09:48:29;;;;;;;;;;;28.20;66.00;;;;;;5040506;28;19933;-68
2022/09/05 09:51:16;;;;;;;;;;;28.30;66.20;;;;;;5022139;28;19932;-60
2022/09/05 09:53:50;;;;;;;;;;;28.10;66.00;;;;;;5049147;28;19936;-60
2022/09/05 09:56:19;;;;;;;;;;;28.30;66.40;;;;;;5053659;28;19928;-61
2022/09/05 09:58:51;;;;;;;;;;;28.30;66.30;;;;;;5042608;28;20377;-62
2022/09/05 10:01:37;;;;;;;;;;;27.90;66.10;;;;;;5047421;28;20286;-60
2022/09/05 10:04:38;;;;;;;;;;;28.60;66.80;;;;;;5068430;28;19924;-61
2022/09/05 10:07:22;;;;;;;;;;;28.20;66.70;;;;;;5031355;28;19932;-61
2022/09/05 10:10:06;;;;;;;;;;;28.10;66.60;;;;;;5031186;28;19936;-60
2022/09/05 10:12:50;;;;;;;;;;;28.50;67.10;;;;;;5030644;28;20058;-63
2022/09/05 10:15:38;;;;;;;;;;;28.10;67.10;;;;;;5030270;28;20331;-65
2022/09/05 10:18:04;;;;;;;;;;;28.00;66.90;;;;;;5029622;28;19925;-62
2022/09/05 10:20:41;;;;;;;;;;;28.20;68.50;;;;;;5030873;28;19932;-61
2022/09/05 10:23:25;;;;;;;;;;;28.30;67.40;;;;;;5031344;28;19925;-61
2022/09/05 10:25:51;;;;;;;;;;;27.60;66.60;;;;;;5030431;28;19935;-61
2022/09/05 10:28:35;;;;;;;;;;;28.40;68.70;;;;;;5031132;28;19925;-61
2022/09/05 10:31:18;;;;;;;;;;;28.50;67.30;;;;;;5030567;28;19932;-62
2022/09/05 10:34:03;;;;;;;;;;;28.40;67.40;;;;;;5014223;28;19937;-61
2022/09/05 10:36:29;;;;;;;;;;;28.20;67.40;;;;;;5028546;28;19925;-60
2022/09/05 10:38:59;;;;;;;;;;;28.20;68.10;;;;;;5030922;28;19979;-60
2022/09/05 10:41:30;;;;;;;;;;;28.10;68.40;;;;;;5020026;28;20349;-61
2022/09/05 10:44:03;;;;;;;;;;;28.30;68.60;;;;;;5032896;28;19933;-61
2022/09/05 10:46:41;;;;;;;;;;;28.20;67.40;;;;;;5045602;28;20015;-62
2022/09/05 10:49:07;;;;;;;;;;;28.50;67.70;;;;;;5038700;28;20275;-60
2022/09/05 10:51:33;;;;;;;;;;;28.30;69.00;;;;;;5045829;28;20063;-61
2022/09/05 10:54:06;;;;;;;;;;;28.30;69.50;;;;;;5052915;28;20012;-61
2022/09/05 10:56:39;;;;;;;;;;;28.40;67.70;;;;;;5057774;28;19935;-61
2022/09/05 10:59:08;;;;;;;;;;;28.40;68.20;;;;;;5039167;28;19924;-63
2022/09/05 11:01:40;;;;;;;;;;;28.70;69.00;;;;;;5057014;28;20337;-68
2022/09/05 11:04:20;;;;;;;;;;;28.50;67.30;;;;;;5047284;28;20019;-61
2022/09/05 11:07:05;;;;;;;;;;;28.70;67.20;;;;;;5044454;28;20016;-60
2022/09/05 11:09:49;;;;;;;;;;;28.30;66.60;;;;;;5042876;28;19925;-61
2022/09/05 11:12:35;;;;;;;;;;;29.00;67.20;;;;;;5040686;28;19925;-74
2022/09/05 11:15:04;;;;;;;;;;;28.50;68.30;;;;;;5033771;28;19951;-61
2022/09/05 11:17:56;;;;;;;;;;;28.70;68.00;;;;;;5036735;28;19932;-80
2022/09/05 11:20:34;;;;;;;;;;;28.60;66.70;;;;;;5045384;28;20386;-62
2022/09/05 11:23:01;;;;;;;;;;;28.50;66.30;;;;;;5052020;28;20397;-64
2022/09/05 11:25:27;;;;;;;;;;;29.00;68.00;;;;;;5051266;28;20374;-80
2022/09/05 11:27:53;;;;;;;;;;;28.70;66.80;;;;;;5044563;28;20023;-66
2022/09/05 11:30:20;;;;;;;;;;;28.70;67.90;;;;;;5052616;28;19932;-63
2022/09/05 11:33:04;;;;;;;;;;;28.70;67.80;;;;;;5044787;28;19925;-69
2022/09/05 11:35:34;;;;;;;;;;;28.60;66.20;;;;;;5039027;28;20375;-81
2022/09/05 11:38:06;;;;;;;;;;;28.70;66.20;;;;;;5043338;28;19925;-79
2022/09/05 11:40:50;;;;;;;;;;;28.80;66.00;;;;;;5048232;28;20386;-61
2022/09/05 11:43:34;;;;;;;;;;;29.00;66.20;;;;;;5033643;28;19925;-61
2022/09/05 11:46:18;;;;;;;;;;;28.90;66.00;;;;;;5041950;28;20264;-64
2022/09/05 11:48:44;;;;;;;;;;;28.80;65.90;;;;;;5041241;28;19929;-66
2022/09/05 11:51:21;;;;;;;;;;;29.00;66.90;;;;;;5035843;28;19986;-66
2022/09/05 11:54:12;;;;;;;;;;;29.00;65.70;;;;;;5044882;28;20021;-81
2022/09/05 11:56:56;;;;;;;;;;;28.70;65.50;;;;;;5029009;28;19924;-69
2022/09/05 11:59:32;;;;;;;;;;;29.20;65.70;;;;;;5043905;28;20301;-76
2022/09/05 12:02:17;;;;;;;;;;;29.00;65.40;;;;;;5041662;28;20003;-63
2022/09/05 12:05:03;;;;;;;;;;;29.10;65.50;;;;;;5042626;28;19957;-62
2022/09/05 12:07:29;;;;;;;;;;;29.30;65.80;;;;;;5041290;28;20417;-67
2022/09/05 12:10:08;;;;;;;;;;;29.00;66.70;;;;;;5022361;28;19934;-62
2022/09/05 12:12:49;;;;;;;;;;;28.80;65.40;;;;;;5043619;28;19972;-66
2022/09/05 12:15:19;;;;;;;;;;;29.20;65.70;;;;;;5057274;28;20300;-62
2022/09/05 12:17:53;;;;;;;;;;;29.10;65.60;;;;;;5047002;28;19925;-68
2022/09/05 12:20:30;;;;;;;;;;;29.10;65.50;;;;;;5039618;28;19925;-67
2022/09/05 12:22:55;;;;;;;;;;;29.20;65.60;;;;;;5043398;28;19925;-63
2022/09/05 12:25:21;;;;;;;;;;;29.30;66.80;;;;;;5038409;28;20304;-67
2022/09/05 12:27:48;;;;;;;;;;;29.10;66.40;;;;;;5050360;28;19925;-61
2022/09/05 12:30:20;;;;;;;;;;;29.20;66.70;;;;;;5044021;28;19978;-74
2022/09/05 12:32:49;;;;;;;;;;;29.10;66.70;;;;;;5041292;28;19925;-61
2022/09/05 12:35:19;;;;;;;;;;;29.30;65.40;;;;;;5045523;28;19921;-61
2022/09/05 12:37:48;;;;;;;;;;;29.20;66.80;;;;;;5069913;28;19948;-65
2022/09/05 12:40:14;;;;;;;;;;;29.10;65.30;;;;;;5047075;28;19925;-61
2022/09/05 12:42:41;;;;;;;;;;;29.20;66.90;;;;;;5042893;28;20354;-68
2022/09/05 12:45:10;;;;;;;;;;;29.10;66.70;;;;;;5061902;28;20383;-76
2022/09/05 12:47:51;;;;;;;;;;;29.30;65.50;;;;;;5047527;28;19987;-61
2022/09/05 12:50:17;;;;;;;;;;;29.00;65.30;;;;;;5050118;28;20311;-61
2022/09/05 12:52:49;;;;;;;;;;;28.90;66.40;;;;;;5041082;28;19925;-60
2022/09/05 12:55:21;;;;;;;;;;;29.30;65.50;;;;;;5049393;28;19929;-63
2022/09/05 12:57:48;;;;;;;;;;;29.30;67.10;;;;;;5047035;28;19925;-63
2022/09/05 13:00:14;;;;;;;;;;;29.20;66.80;;;;;;5043759;28;19932;-64
2022/09/05 13:02:43;;;;;;;;;;;29.10;67.00;;;;;;5042701;28;20324;-65
2022/09/05 13:05:13;;;;;;;;;;;29.30;67.20;;;;;;5035794;28;20039;-61
2022/09/05 13:07:41;;;;;;;;;;;29.20;65.50;;;;;;5043218;28;19921;-61
2022/09/05 13:10:10;;;;;;;;;;;29.20;66.70;;;;;;5035731;28;19925;-61
2022/09/05 13:12:47;;;;;;;;;;;29.40;66.80;;;;;;5043043;28;19932;-61
2022/09/05 13:15:15;;;;;;;;;;;29.10;65.50;;;;;;5048083;28;19932;-61
2022/09/05 13:17:58;;;;;;;;;;;29.20;66.90;;;;;;5048016;28;20010;-61
2022/09/05 13:20:35;;;;;;;;;;;29.10;65.50;;;;;;5035455;28;19932;-64
2022/09/05 13:23:16;;;;;;;;;;;29.30;65.80;;;;;;5046541;28;20286;-61
2022/09/05 13:25:42;;;;;;;;;;;29.20;65.60;;;;;;5048638;28;19975;-62
2022/09/05 13:28:08;;;;;;;;;;;29.10;66.90;;;;;;5041553;28;19929;-62
2022/09/05 13:30:36;;;;;;;;;;;29.30;67.20;;;;;;5046392;28;19925;-62
2022/09/05 13:33:02;;;;;;;;;;;29.20;67.00;;;;;;5043832;28;19932;-61
2022/09/05 13:35:29;;;;;;;;;;;29.30;67.10;;;;;;5034032;28;19925;-62
2022/09/05 13:37:54;;;;;;;;;;;29.20;67.00;;;;;;5046478;28;19971;-61
2022/09/05 13:40:21;;;;;;;;;;;29.20;66.80;;;;;;5051076;28;20367;-61
2022/09/05 13:42:56;;;;;;;;;;;29.40;67.20;;;;;;5044824;28;19936;-61
2022/09/05 13:45:22;;;;;;;;;;;29.40;65.70;;;;;;5047119;28;20071;-61
2022/09/05 13:48:07;;;;;;;;;;;29.00;66.60;;;;;;5042311;28;19968;-64
2022/09/05 13:50:32;;;;;;;;;;;29.20;65.70;;;;;;5041800;28;19932;-61
2022/09/05 13:53:10;;;;;;;;;;;29.10;66.90;;;;;;5044590;28;19925;-61
2022/09/05 13:55:39;;;;;;;;;;;29.20;65.80;;;;;;5026345;28;19932;-62
2022/09/05 13:58:20;;;;;;;;;;;29.20;66.00;;;;;;5066467;28;19940;-61
2022/09/05 14:00:54;;;;;;;;;;;29.20;65.80;;;;;;5043459;28;19929;-65
2022/09/05 14:03:33;;;;;;;;;;;29.10;65.60;;;;;;5048871;28;20392;-69
2022/09/05 14:06:08;;;;;;;;;;;29.10;65.50;;;;;;5049656;28;20295;-67
2022/09/05 14:08:54;;;;;;;;;;;28.90;65.30;;;;;;5048417;28;19925;-65
2022/09/05 14:11:39;;;;;;;;;;;29.20;67.00;;;;;;5028637;28;20016;-61
2022/09/05 14:14:16;;;;;;;;;;;28.90;65.50;;;;;;5025418;28;20425;-61
2022/09/05 14:16:46;;;;;;;;;;;29.10;65.50;;;;;;5014492;28;19925;-65
2022/09/05 14:22:05;;;;;;;;;;;29.00;65.60;;;;;;5045011;28;20035;-61
2022/09/05 14:24:32;;;;;;;;;;;29.00;67.70;;;;;;5047511;28;19939;-61
2022/09/05 14:27:02;;;;;;;;;;;29.20;67.00;;;;;;5030313;28;19930;-62
2022/09/05 14:29:34;;;;;;;;;;;29.00;65.60;;;;;;5018791;28;20024;-62
2022/09/05 14:32:00;;;;;;;;;;;28.90;65.50;;;;;;5027781;28;19922;-61
2022/09/05 14:34:31;;;;;;;;;;;28.80;66.90;;;;;;5022727;28;20019;-61
2022/09/05 14:36:59;;;;;;;;;;;29.10;66.00;;;;;;5030350;28;20015;-62
2022/09/05 14:39:25;;;;;;;;;;;28.80;65.60;;;;;;5024805;28;19947;-61
2022/09/05 14:41:51;;;;;;;;;;;28.80;66.70;;;;;;5027918;28;20441;-62
2022/09/05 14:44:28;;;;;;;;;;;28.60;66.90;;;;;;5014521;28;19925;-61
2022/09/05 14:47:00;;;;;;;;;;;28.80;65.90;;;;;;5030388;28;19929;-64
2022/09/05 14:49:39;;;;;;;;;;;28.90;66.20;;;;;;5041063;28;20023;-61
2022/09/05 14:52:16;;;;;;;;;;;28.70;66.10;;;;;;5051844;28;20283;-65
2022/09/05 14:54:42;;;;;;;;;;;28.80;66.30;;;;;;5042534;28;19929;-60